Geiger, Alabama
Current Conditions -  °F | °C
As of 6:56 AM on Saturday 20 Dec 2014 (Local Time) from KNMM Reporting Station
Haze Haze  
Wind Chill: 37°   Ceiling: 700
Heat Index: 41°   Visibility: 6mi
Dew Point: 39°   Wind: 6mph
Humidity: 93%   Direction: 350°N
Pressure: 30.22"   Gusts: NA
Location:  32.7568°N, 88.3127°W
Report Text: KNMM 201256Z AUTO 35005KT 6SM BR BKN007 OVC027 05/04 A3022 RMK AO2 SLP246 T00500039
Loading
Personal Weather Stations






























Interactive Weather Map New forecast layout! Learn more

10-Day Weather Forecast

Advertisements
Track Severe Weather on mobile